sensor_id;sensor_type;location;lat;lon;timestamp;P1;durP1;ratioP1;P2;durP2;ratioP2
11135;SDS011;5622;50.840;4.948;2022-10-26T00:00:43;6.50;;;3.37;;
11135;SDS011;5622;50.840;4.948;2022-10-26T00:03:11;5.83;;;3.47;;
11135;SDS011;5622;50.840;4.948;2022-10-26T00:05:39;5.97;;;3.17;;
11135;SDS011;5622;50.840;4.948;2022-10-26T00:08:06;8.07;;;3.20;;
11135;SDS011;5622;50.840;4.948;2022-10-26T00:10:34;5.63;;;3.17;;
11135;SDS011;5622;50.840;4.948;2022-10-26T00:13:02;5.40;;;3.23;;
11135;SDS011;5622;50.840;4.948;2022-10-26T00:15:33;7.33;;;3.37;;
11135;SDS011;5622;50.840;4.948;2022-10-26T00:18:00;6.10;;;3.47;;
11135;SDS011;5622;50.840;4.948;2022-10-26T00:20:28;6.83;;;3.67;;
11135;SDS011;5622;50.840;4.948;2022-10-26T00:22:57;5.57;;;3.20;;
11135;SDS011;5622;50.840;4.948;2022-10-26T00:25:24;4.10;;;3.50;;
11135;SDS011;5622;50.840;4.948;2022-10-26T00:27:51;4.63;;;2.97;;
11135;SDS011;5622;50.840;4.948;2022-10-26T00:30:18;9.67;;;4.13;;
11135;SDS011;5622;50.840;4.948;2022-10-26T00:32:45;6.57;;;3.60;;
11135;SDS011;5622;50.840;4.948;2022-10-26T00:35:12;5.90;;;3.67;;
11135;SDS011;5622;50.840;4.948;2022-10-26T00:37:41;5.87;;;3.47;;
11135;SDS011;5622;50.840;4.948;2022-10-26T00:40:09;6.03;;;4.07;;
11135;SDS011;5622;50.840;4.948;2022-10-26T00:42:36;5.77;;;3.60;;
11135;SDS011;5622;50.840;4.948;2022-10-26T00:45:04;6.63;;;3.73;;
11135;SDS011;5622;50.840;4.948;2022-10-26T00:47:44;8.77;;;4.20;;
11135;SDS011;5622;50.840;4.948;2022-10-26T00:50:16;6.73;;;4.27;;
11135;SDS011;5622;50.840;4.948;2022-10-26T00:52:47;7.63;;;4.23;;
11135;SDS011;5622;50.840;4.948;2022-10-26T00:55:15;8.97;;;4.17;;
11135;SDS011;5622;50.840;4.948;2022-10-26T00:57:45;6.80;;;3.50;;
11135;SDS011;5622;50.840;4.948;2022-10-26T01:00:13;8.20;;;4.33;;
11135;SDS011;5622;50.840;4.948;2022-10-26T01:02:40;7.00;;;3.70;;
11135;SDS011;5622;50.840;4.948;2022-10-26T01:05:09;9.43;;;3.70;;
11135;SDS011;5622;50.840;4.948;2022-10-26T01:07:37;6.43;;;3.63;;
11135;SDS011;5622;50.840;4.948;2022-10-26T01:10:07;6.10;;;3.73;;
11135;SDS011;5622;50.840;4.948;2022-10-26T01:12:35;8.73;;;4.23;;
11135;SDS011;5622;50.840;4.948;2022-10-26T01:15:02;8.27;;;4.00;;
11135;SDS011;5622;50.840;4.948;2022-10-26T01:17:34;5.23;;;3.70;;
11135;SDS011;5622;50.840;4.948;2022-10-26T01:20:18;6.67;;;3.70;;
11135;SDS011;5622;50.840;4.948;2022-10-26T01:23:10;6.57;;;4.13;;
11135;SDS011;5622;50.840;4.948;2022-10-26T01:25:59;6.80;;;3.77;;
11135;SDS011;5622;50.840;4.948;2022-10-26T01:28:41;5.53;;;3.30;;
11135;SDS011;5622;50.840;4.948;2022-10-26T01:31:23;4.50;;;3.43;;
11135;SDS011;5622;50.840;4.948;2022-10-26T01:33:55;6.50;;;3.40;;
11135;SDS011;5622;50.840;4.948;2022-10-26T01:36:29;4.17;;;3.43;;
11135;SDS011;5622;50.840;4.948;2022-10-26T01:39:00;4.47;;;3.17;;
11135;SDS011;5622;50.840;4.948;2022-10-26T01:41:34;8.23;;;2.90;;
11135;SDS011;5622;50.840;4.948;2022-10-26T01:44:09;4.23;;;2.87;;
11135;SDS011;5622;50.840;4.948;2022-10-26T01:46:42;7.47;;;3.80;;
11135;SDS011;5622;50.840;4.948;2022-10-26T01:49:13;5.73;;;3.40;;
11135;SDS011;5622;50.840;4.948;2022-10-26T01:51:43;4.50;;;3.30;;
11135;SDS011;5622;50.840;4.948;2022-10-26T01:54:14;3.73;;;3.10;;
11135;SDS011;5622;50.840;4.948;2022-10-26T01:56:41;6.87;;;3.07;;
11135;SDS011;5622;50.840;4.948;2022-10-26T01:59:25;4.17;;;2.77;;
11135;SDS011;5622;50.840;4.948;2022-10-26T02:02:13;5.70;;;3.50;;
11135;SDS011;5622;50.840;4.948;2022-10-26T02:05:09;6.53;;;3.00;;
11135;SDS011;5622;50.840;4.948;2022-10-26T02:07:49;5.30;;;2.83;;
11135;SDS011;5622;50.840;4.948;2022-10-26T02:10:24;4.23;;;2.70;;
11135;SDS011;5622;50.840;4.948;2022-10-26T02:13:01;4.30;;;2.90;;
11135;SDS011;5622;50.840;4.948;2022-10-26T02:15:36;4.60;;;2.50;;
11135;SDS011;5622;50.840;4.948;2022-10-26T02:18:12;5.87;;;3.00;;
11135;SDS011;5622;50.840;4.948;2022-10-26T02:20:49;3.63;;;3.00;;
11135;SDS011;5622;50.840;4.948;2022-10-26T02:23:20;3.80;;;2.60;;
11135;SDS011;5622;50.840;4.948;2022-10-26T02:25:50;6.87;;;2.90;;
11135;SDS011;5622;50.840;4.948;2022-10-26T02:28:23;5.40;;;3.03;;
11135;SDS011;5622;50.840;4.948;2022-10-26T02:30:54;5.80;;;2.90;;
11135;SDS011;5622;50.840;4.948;2022-10-26T02:33:24;5.87;;;2.93;;
11135;SDS011;5622;50.840;4.948;2022-10-26T02:35:55;4.70;;;2.80;;
11135;SDS011;5622;50.840;4.948;2022-10-26T02:38:26;4.20;;;2.80;;
11135;SDS011;5622;50.840;4.948;2022-10-26T02:40:55;4.90;;;2.90;;
11135;SDS011;5622;50.840;4.948;2022-10-26T02:43:25;4.60;;;2.93;;
11135;SDS011;5622;50.840;4.948;2022-10-26T02:45:55;5.67;;;3.57;;
11135;SDS011;5622;50.840;4.948;2022-10-26T02:48:28;5.17;;;3.27;;
11135;SDS011;5622;50.840;4.948;2022-10-26T02:50:57;4.27;;;2.80;;
11135;SDS011;5622;50.840;4.948;2022-10-26T02:53:28;5.40;;;2.90;;
11135;SDS011;5622;50.840;4.948;2022-10-26T02:56:02;5.67;;;3.33;;
11135;SDS011;5622;50.840;4.948;2022-10-26T02:58:36;3.77;;;2.60;;
11135;SDS011;5622;50.840;4.948;2022-10-26T03:01:06;4.93;;;3.67;;
11135;SDS011;5622;50.840;4.948;2022-10-26T03:03:35;3.53;;;2.73;;
11135;SDS011;5622;50.840;4.948;2022-10-26T03:06:02;4.00;;;2.90;;
11135;SDS011;5622;50.840;4.948;2022-10-26T03:08:29;5.83;;;2.80;;
11135;SDS011;5622;50.840;4.948;2022-10-26T03:10:56;3.70;;;2.87;;
11135;SDS011;5622;50.840;4.948;2022-10-26T03:13:23;4.33;;;2.90;;
11135;SDS011;5622;50.840;4.948;2022-10-26T03:15:53;4.87;;;2.33;;
11135;SDS011;5622;50.840;4.948;2022-10-26T03:18:20;4.13;;;2.60;;
11135;SDS011;5622;50.840;4.948;2022-10-26T03:20:49;4.27;;;2.50;;
11135;SDS011;5622;50.840;4.948;2022-10-26T03:23:16;4.00;;;2.40;;
11135;SDS011;5622;50.840;4.948;2022-10-26T03:25:43;4.00;;;2.60;;
11135;SDS011;5622;50.840;4.948;2022-10-26T03:28:10;4.90;;;2.20;;
11135;SDS011;5622;50.840;4.948;2022-10-26T03:30:38;6.30;;;2.60;;
11135;SDS011;5622;50.840;4.948;2022-10-26T03:33:05;5.67;;;2.33;;
11135;SDS011;5622;50.840;4.948;2022-10-26T03:35:32;3.97;;;2.20;;
11135;SDS011;5622;50.840;4.948;2022-10-26T03:38:01;3.50;;;2.20;;
11135;SDS011;5622;50.840;4.948;2022-10-26T03:40:28;2.67;;;1.93;;
11135;SDS011;5622;50.840;4.948;2022-10-26T03:42:55;2.93;;;2.60;;
11135;SDS011;5622;50.840;4.948;2022-10-26T03:45:22;2.97;;;2.13;;
11135;SDS011;5622;50.840;4.948;2022-10-26T03:47:49;4.03;;;2.33;;
11135;SDS011;5622;50.840;4.948;2022-10-26T03:50:18;3.10;;;1.90;;
11135;SDS011;5622;50.840;4.948;2022-10-26T03:52:47;2.37;;;2.03;;
11135;SDS011;5622;50.840;4.948;2022-10-26T03:55:16;2.10;;;1.90;;
11135;SDS011;5622;50.840;4.948;2022-10-26T03:57:44;3.77;;;2.20;;
11135;SDS011;5622;50.840;4.948;2022-10-26T04:00:12;3.03;;;1.97;;
11135;SDS011;5622;50.840;4.948;2022-10-26T04:02:41;4.83;;;2.13;;
11135;SDS011;5622;50.840;4.948;2022-10-26T04:05:10;2.97;;;2.07;;
11135;SDS011;5622;50.840;4.948;2022-10-26T04:07:37;6.20;;;2.17;;
11135;SDS011;5622;50.840;4.948;2022-10-26T04:10:05;3.23;;;2.00;;
11135;SDS011;5622;50.840;4.948;2022-10-26T04:12:36;2.97;;;2.00;;
11135;SDS011;5622;50.840;4.948;2022-10-26T04:15:04;2.37;;;1.90;;
11135;SDS011;5622;50.840;4.948;2022-10-26T04:17:32;2.87;;;1.83;;
11135;SDS011;5622;50.840;4.948;2022-10-26T04:19:59;2.97;;;1.80;;
11135;SDS011;5622;50.840;4.948;2022-10-26T04:22:26;3.23;;;2.10;;
11135;SDS011;5622;50.840;4.948;2022-10-26T04:24:53;5.20;;;2.10;;
11135;SDS011;5622;50.840;4.948;2022-10-26T04:27:20;5.63;;;2.10;;
11135;SDS011;5622;50.840;4.948;2022-10-26T04:29:49;5.30;;;2.00;;
11135;SDS011;5622;50.840;4.948;2022-10-26T04:32:16;3.07;;;1.70;;
11135;SDS011;5622;50.840;4.948;2022-10-26T04:34:43;2.60;;;1.90;;
11135;SDS011;5622;50.840;4.948;2022-10-26T04:37:10;2.43;;;1.73;;
11135;SDS011;5622;50.840;4.948;2022-10-26T04:39:37;4.80;;;2.20;;
11135;SDS011;5622;50.840;4.948;2022-10-26T04:42:04;2.97;;;2.23;;
11135;SDS011;5622;50.840;4.948;2022-10-26T04:44:31;3.73;;;2.30;;
11135;SDS011;5622;50.840;4.948;2022-10-26T04:47:00;3.67;;;2.13;;
11135;SDS011;5622;50.840;4.948;2022-10-26T04:49:27;3.77;;;2.40;;
11135;SDS011;5622;50.840;4.948;2022-10-26T04:51:54;6.00;;;3.00;;
11135;SDS011;5622;50.840;4.948;2022-10-26T04:54:21;3.57;;;2.43;;
11135;SDS011;5622;50.840;4.948;2022-10-26T04:56:49;4.57;;;2.50;;
11135;SDS011;5622;50.840;4.948;2022-10-26T04:59:17;6.70;;;2.57;;
11135;SDS011;5622;50.840;4.948;2022-10-26T05:01:44;4.60;;;2.20;;
11135;SDS011;5622;50.840;4.948;2022-10-26T05:04:12;6.77;;;2.40;;
11135;SDS011;5622;50.840;4.948;2022-10-26T05:06:39;4.53;;;2.10;;
11135;SDS011;5622;50.840;4.948;2022-10-26T05:09:07;7.53;;;2.27;;
11135;SDS011;5622;50.840;4.948;2022-10-26T05:11:34;4.77;;;1.90;;
11135;SDS011;5622;50.840;4.948;2022-10-26T05:14:01;2.83;;;2.10;;
11135;SDS011;5622;50.840;4.948;2022-10-26T05:16:28;4.43;;;1.93;;
11135;SDS011;5622;50.840;4.948;2022-10-26T05:18:55;3.47;;;1.87;;
11135;SDS011;5622;50.840;4.948;2022-10-26T05:21:24;6.57;;;2.30;;
11135;SDS011;5622;50.840;4.948;2022-10-26T05:23:51;5.50;;;2.80;;
11135;SDS011;5622;50.840;4.948;2022-10-26T05:26:19;5.13;;;2.53;;
11135;SDS011;5622;50.840;4.948;2022-10-26T05:28:46;3.53;;;2.00;;
11135;SDS011;5622;50.840;4.948;2022-10-26T05:31:13;4.57;;;2.17;;
11135;SDS011;5622;50.840;4.948;2022-10-26T05:33:41;7.27;;;2.30;;
11135;SDS011;5622;50.840;4.948;2022-10-26T05:36:08;5.10;;;2.13;;
11135;SDS011;5622;50.840;4.948;2022-10-26T05:38:36;4.03;;;2.30;;
11135;SDS011;5622;50.840;4.948;2022-10-26T05:41:04;4.37;;;2.30;;
11135;SDS011;5622;50.840;4.948;2022-10-26T05:43:31;10.13;;;2.73;;
11135;SDS011;5622;50.840;4.948;2022-10-26T05:45:58;2.97;;;2.03;;
11135;SDS011;5622;50.840;4.948;2022-10-26T05:48:25;4.10;;;2.30;;
11135;SDS011;5622;50.840;4.948;2022-10-26T05:50:52;3.60;;;2.10;;
11135;SDS011;5622;50.840;4.948;2022-10-26T05:53:19;3.77;;;2.30;;
11135;SDS011;5622;50.840;4.948;2022-10-26T05:55:48;4.30;;;2.13;;
11135;SDS011;5622;50.840;4.948;2022-10-26T05:58:15;4.73;;;2.33;;
11135;SDS011;5622;50.840;4.948;2022-10-26T06:00:46;5.20;;;2.47;;
11135;SDS011;5622;50.840;4.948;2022-10-26T06:03:26;7.07;;;3.00;;
11135;SDS011;5622;50.840;4.948;2022-10-26T06:06:03;5.50;;;2.90;;
11135;SDS011;5622;50.840;4.948;2022-10-26T06:08:30;4.60;;;2.60;;
11135;SDS011;5622;50.840;4.948;2022-10-26T06:13:57;6.57;;;3.10;;
11135;SDS011;5622;50.840;4.948;2022-10-26T06:16:28;8.87;;;3.60;;
11135;SDS011;5622;50.840;4.948;2022-10-26T06:19:08;6.87;;;3.60;;
11135;SDS011;5622;50.840;4.948;2022-10-26T06:22:16;5.80;;;3.00;;
11135;SDS011;5622;50.840;4.948;2022-10-26T06:25:56;3.63;;;2.63;;
11135;SDS011;5622;50.840;4.948;2022-10-26T06:28:39;7.60;;;3.67;;
11135;SDS011;5622;50.840;4.948;2022-10-26T06:31:37;7.93;;;3.00;;
11135;SDS011;5622;50.840;4.948;2022-10-26T06:34:04;5.40;;;2.70;;
11135;SDS011;5622;50.840;4.948;2022-10-26T06:36:32;5.10;;;3.10;;
11135;SDS011;5622;50.840;4.948;2022-10-26T06:39:12;7.73;;;2.83;;
11135;SDS011;5622;50.840;4.948;2022-10-26T06:41:41;5.60;;;3.53;;
11135;SDS011;5622;50.840;4.948;2022-10-26T06:44:11;4.90;;;3.30;;
11135;SDS011;5622;50.840;4.948;2022-10-26T07:11:06;4.37;;;2.83;;
11135;SDS011;5622;50.840;4.948;2022-10-26T07:13:41;5.90;;;2.90;;
11135;SDS011;5622;50.840;4.948;2022-10-26T07:42:54;3.37;;;2.57;;
11135;SDS011;5622;50.840;4.948;2022-10-26T08:45:04;4.43;;;2.90;;
11135;SDS011;5622;50.840;4.948;2022-10-26T08:47:39;4.10;;;2.73;;
11135;SDS011;5622;50.840;4.948;2022-10-26T08:50:17;6.17;;;2.77;;
11135;SDS011;5622;50.840;4.948;2022-10-26T08:52:51;5.23;;;2.90;;
11135;SDS011;5622;50.840;4.948;2022-10-26T08:55:28;4.27;;;2.80;;
11135;SDS011;5622;50.840;4.948;2022-10-26T08:57:59;5.17;;;2.70;;
11135;SDS011;5622;50.840;4.948;2022-10-26T09:00:31;3.80;;;2.53;;
11135;SDS011;5622;50.840;4.948;2022-10-26T09:02:59;6.30;;;3.03;;
11135;SDS011;5622;50.840;4.948;2022-10-26T09:09:02;4.77;;;2.90;;
11135;SDS011;5622;50.840;4.948;2022-10-26T09:11:39;4.60;;;2.60;;
11135;SDS011;5622;50.840;4.948;2022-10-26T09:14:23;7.87;;;2.97;;
11135;SDS011;5622;50.840;4.948;2022-10-26T09:17:00;6.60;;;3.03;;
11135;SDS011;5622;50.840;4.948;2022-10-26T09:19:43;6.40;;;2.97;;
11135;SDS011;5622;50.840;4.948;2022-10-26T09:22:57;6.60;;;2.90;;
11135;SDS011;5622;50.840;4.948;2022-10-26T09:25:42;6.70;;;2.80;;
11135;SDS011;5622;50.840;4.948;2022-10-26T09:28:46;6.03;;;2.90;;
11135;SDS011;5622;50.840;4.948;2022-10-26T10:09:38;6.40;;;1.87;;
11135;SDS011;5622;50.840;4.948;2022-10-26T10:12:19;4.73;;;2.00;;
11135;SDS011;5622;50.840;4.948;2022-10-26T10:15:16;4.60;;;1.80;;
11135;SDS011;5622;50.840;4.948;2022-10-26T10:17:46;6.40;;;2.10;;
11135;SDS011;5622;50.840;4.948;2022-10-26T10:20:18;4.30;;;1.77;;
11135;SDS011;5622;50.840;4.948;2022-10-26T10:22:51;4.20;;;2.00;;
11135;SDS011;5622;50.840;4.948;2022-10-26T10:25:30;3.33;;;1.80;;
11135;SDS011;5622;50.840;4.948;2022-10-26T10:27:59;3.67;;;1.60;;
11135;SDS011;5622;50.840;4.948;2022-10-26T10:30:50;4.93;;;1.90;;
11135;SDS011;5622;50.840;4.948;2022-10-26T10:33:18;4.80;;;2.13;;
11135;SDS011;5622;50.840;4.948;2022-10-26T10:35:46;7.57;;;1.90;;
11135;SDS011;5622;50.840;4.948;2022-10-26T10:38:16;4.67;;;2.20;;
11135;SDS011;5622;50.840;4.948;2022-10-26T10:40:50;3.40;;;2.30;;
11135;SDS011;5622;50.840;4.948;2022-10-26T10:43:19;2.90;;;2.20;;
11135;SDS011;5622;50.840;4.948;2022-10-26T10:45:47;3.73;;;1.90;;
11135;SDS011;5622;50.840;4.948;2022-10-26T10:48:17;4.53;;;1.97;;
11135;SDS011;5622;50.840;4.948;2022-10-26T10:50:50;2.23;;;1.60;;
11135;SDS011;5622;50.840;4.948;2022-10-26T10:53:20;4.67;;;2.00;;
11135;SDS011;5622;50.840;4.948;2022-10-26T10:56:01;4.70;;;1.90;;
11135;SDS011;5622;50.840;4.948;2022-10-26T11:09:18;2.77;;;1.57;;
11135;SDS011;5622;50.840;4.948;2022-10-26T11:12:15;3.17;;;1.60;;
11135;SDS011;5622;50.840;4.948;2022-10-26T11:19:21;2.57;;;1.93;;
11135;SDS011;5622;50.840;4.948;2022-10-26T11:22:16;2.70;;;1.43;;
11135;SDS011;5622;50.840;4.948;2022-10-26T11:24:56;4.27;;;1.40;;
11135;SDS011;5622;50.840;4.948;2022-10-26T11:30:57;2.63;;;1.50;;
11135;SDS011;5622;50.840;4.948;2022-10-26T11:34:00;1.87;;;1.40;;
11135;SDS011;5622;50.840;4.948;2022-10-26T11:36:42;3.60;;;1.53;;
11135;SDS011;5622;50.840;4.948;2022-10-26T11:39:52;4.77;;;1.60;;
11135;SDS011;5622;50.840;4.948;2022-10-26T11:42:40;5.83;;;1.57;;
11135;SDS011;5622;50.840;4.948;2022-10-26T11:45:40;4.93;;;1.50;;
11135;SDS011;5622;50.840;4.948;2022-10-26T11:48:13;5.37;;;1.50;;
11135;SDS011;5622;50.840;4.948;2022-10-26T11:50:46;3.23;;;1.50;;
11135;SDS011;5622;50.840;4.948;2022-10-26T11:53:16;4.00;;;1.70;;
11135;SDS011;5622;50.840;4.948;2022-10-26T11:55:47;4.03;;;2.00;;
11135;SDS011;5622;50.840;4.948;2022-10-26T11:58:18;5.50;;;2.00;;
11135;SDS011;5622;50.840;4.948;2022-10-26T12:00:50;4.60;;;1.80;;
11135;SDS011;5622;50.840;4.948;2022-10-26T12:03:24;4.73;;;2.30;;
11135;SDS011;5622;50.840;4.948;2022-10-26T12:05:54;3.53;;;1.93;;
11135;SDS011;5622;50.840;4.948;2022-10-26T12:08:35;4.07;;;1.80;;
11135;SDS011;5622;50.840;4.948;2022-10-26T12:11:08;3.80;;;2.07;;
11135;SDS011;5622;50.840;4.948;2022-10-26T12:14:08;5.47;;;1.80;;
11135;SDS011;5622;50.840;4.948;2022-10-26T12:16:50;2.33;;;2.00;;
11135;SDS011;5622;50.840;4.948;2022-10-26T12:19:25;5.60;;;1.90;;
11135;SDS011;5622;50.840;4.948;2022-10-26T12:21:57;3.37;;;1.87;;
11135;SDS011;5622;50.840;4.948;2022-10-26T12:24:25;3.83;;;1.93;;
11135;SDS011;5622;50.840;4.948;2022-10-26T12:26:55;4.53;;;1.90;;
11135;SDS011;5622;50.840;4.948;2022-10-26T12:35:32;2.07;;;1.70;;
11135;SDS011;5622;50.840;4.948;2022-10-26T12:41:22;2.53;;;1.60;;
11135;SDS011;5622;50.840;4.948;2022-10-26T12:43:54;3.57;;;1.70;;
11135;SDS011;5622;50.840;4.948;2022-10-26T13:04:03;3.47;;;1.80;;
11135;SDS011;5622;50.840;4.948;2022-10-26T13:06:47;4.90;;;2.30;;
11135;SDS011;5622;50.840;4.948;2022-10-26T13:09:28;4.20;;;1.70;;
11135;SDS011;5622;50.840;4.948;2022-10-26T13:11:57;3.57;;;1.90;;
11135;SDS011;5622;50.840;4.948;2022-10-26T13:14:28;3.13;;;1.80;;
11135;SDS011;5622;50.840;4.948;2022-10-26T13:16:59;5.43;;;2.10;;
11135;SDS011;5622;50.840;4.948;2022-10-26T13:19:30;4.47;;;2.10;;
11135;SDS011;5622;50.840;4.948;2022-10-26T13:22:03;2.87;;;2.30;;
11135;SDS011;5622;50.840;4.948;2022-10-26T13:24:32;3.60;;;2.17;;
11135;SDS011;5622;50.840;4.948;2022-10-26T13:30:20;6.33;;;1.80;;
11135;SDS011;5622;50.840;4.948;2022-10-26T13:33:05;6.10;;;2.00;;
11135;SDS011;5622;50.840;4.948;2022-10-26T13:35:38;4.83;;;1.83;;
11135;SDS011;5622;50.840;4.948;2022-10-26T13:38:07;3.07;;;1.50;;
11135;SDS011;5622;50.840;4.948;2022-10-26T13:40:38;4.33;;;1.63;;
11135;SDS011;5622;50.840;4.948;2022-10-26T13:43:06;2.00;;;1.70;;
11135;SDS011;5622;50.840;4.948;2022-10-26T13:45:45;3.97;;;1.90;;
11135;SDS011;5622;50.840;4.948;2022-10-26T13:48:19;3.67;;;1.80;;
11135;SDS011;5622;50.840;4.948;2022-10-26T13:50:53;8.50;;;1.93;;
11135;SDS011;5622;50.840;4.948;2022-10-26T13:53:21;1.97;;;1.50;;
11135;SDS011;5622;50.840;4.948;2022-10-26T13:56:11;3.33;;;1.80;;
11135;SDS011;5622;50.840;4.948;2022-10-26T13:58:46;2.30;;;1.53;;
11135;SDS011;5622;50.840;4.948;2022-10-26T14:01:16;4.00;;;1.50;;
11135;SDS011;5622;50.840;4.948;2022-10-26T14:04:28;5.00;;;1.70;;
11135;SDS011;5622;50.840;4.948;2022-10-26T14:07:10;3.60;;;1.80;;
11135;SDS011;5622;50.840;4.948;2022-10-26T14:10:31;3.53;;;1.77;;
11135;SDS011;5622;50.840;4.948;2022-10-26T14:13:07;2.40;;;1.87;;
11135;SDS011;5622;50.840;4.948;2022-10-26T14:16:08;3.97;;;1.70;;
11135;SDS011;5622;50.840;4.948;2022-10-26T14:18:36;1.53;;;1.43;;
11135;SDS011;5622;50.840;4.948;2022-10-26T14:21:04;2.83;;;1.63;;
11135;SDS011;5622;50.840;4.948;2022-10-26T14:23:47;11.10;;;2.00;;
11135;SDS011;5622;50.840;4.948;2022-10-26T14:26:58;5.43;;;1.70;;
11135;SDS011;5622;50.840;4.948;2022-10-26T14:32:35;5.20;;;1.80;;
11135;SDS011;5622;50.840;4.948;2022-10-26T14:35:02;2.90;;;1.90;;
11135;SDS011;5622;50.840;4.948;2022-10-26T14:37:34;5.43;;;1.90;;
11135;SDS011;5622;50.840;4.948;2022-10-26T14:40:05;3.30;;;2.10;;
11135;SDS011;5622;50.840;4.948;2022-10-26T14:42:33;4.27;;;2.17;;
11135;SDS011;5622;50.840;4.948;2022-10-26T14:45:17;4.87;;;2.00;;
11135;SDS011;5622;50.840;4.948;2022-10-26T14:47:51;4.73;;;1.67;;
11135;SDS011;5622;50.840;4.948;2022-10-26T14:50:26;3.23;;;1.70;;
11135;SDS011;5622;50.840;4.948;2022-10-26T14:53:12;3.23;;;1.57;;
11135;SDS011;5622;50.840;4.948;2022-10-26T14:56:20;3.80;;;1.70;;
11135;SDS011;5622;50.840;4.948;2022-10-26T14:58:53;5.43;;;1.70;;
11135;SDS011;5622;50.840;4.948;2022-10-26T15:01:23;3.73;;;1.63;;
11135;SDS011;5622;50.840;4.948;2022-10-26T15:04:01;3.07;;;1.80;;
11135;SDS011;5622;50.840;4.948;2022-10-26T15:06:36;8.47;;;2.00;;
11135;SDS011;5622;50.840;4.948;2022-10-26T15:09:28;2.83;;;1.87;;
11135;SDS011;5622;50.840;4.948;2022-10-26T15:12:04;3.53;;;1.50;;
11135;SDS011;5622;50.840;4.948;2022-10-26T15:14:33;3.70;;;1.60;;
11135;SDS011;5622;50.840;4.948;2022-10-26T15:17:01;5.07;;;1.70;;
11135;SDS011;5622;50.840;4.948;2022-10-26T15:19:30;3.50;;;1.37;;
11135;SDS011;5622;50.840;4.948;2022-10-26T15:21:58;3.07;;;1.40;;
11135;SDS011;5622;50.840;4.948;2022-10-26T15:24:30;7.00;;;1.80;;
11135;SDS011;5622;50.840;4.948;2022-10-26T15:27:11;4.50;;;2.00;;
11135;SDS011;5622;50.840;4.948;2022-10-26T15:29:41;3.40;;;1.40;;
11135;SDS011;5622;50.840;4.948;2022-10-26T15:32:18;4.63;;;1.43;;
11135;SDS011;5622;50.840;4.948;2022-10-26T15:37:39;4.00;;;1.70;;
11135;SDS011;5622;50.840;4.948;2022-10-26T15:40:07;4.93;;;1.50;;
11135;SDS011;5622;50.840;4.948;2022-10-26T15:42:35;1.87;;;1.50;;
11135;SDS011;5622;50.840;4.948;2022-10-26T15:45:04;2.67;;;1.70;;
11135;SDS011;5622;50.840;4.948;2022-10-26T15:47:41;2.50;;;1.50;;
11135;SDS011;5622;50.840;4.948;2022-10-26T15:50:12;4.50;;;1.80;;
11135;SDS011;5622;50.840;4.948;2022-10-26T15:52:40;2.50;;;1.70;;
11135;SDS011;5622;50.840;4.948;2022-10-26T15:55:07;3.63;;;1.90;;
11135;SDS011;5622;50.840;4.948;2022-10-26T15:57:35;7.23;;;1.80;;
11135;SDS011;5622;50.840;4.948;2022-10-26T16:00:04;4.53;;;1.70;;
11135;SDS011;5622;50.840;4.948;2022-10-26T16:03:04;6.03;;;1.90;;
11135;SDS011;5622;50.840;4.948;2022-10-26T16:05:41;4.60;;;1.77;;
11135;SDS011;5622;50.840;4.948;2022-10-26T16:08:08;3.03;;;1.83;;
11135;SDS011;5622;50.840;4.948;2022-10-26T16:10:40;4.10;;;1.60;;
11135;SDS011;5622;50.840;4.948;2022-10-26T16:13:17;7.33;;;1.63;;
11135;SDS011;5622;50.840;4.948;2022-10-26T16:15:44;6.07;;;2.10;;
11135;SDS011;5622;50.840;4.948;2022-10-26T16:18:23;5.10;;;2.43;;
11135;SDS011;5622;50.840;4.948;2022-10-26T16:21:01;8.53;;;4.77;;
11135;SDS011;5622;50.840;4.948;2022-10-26T16:23:29;9.37;;;6.27;;
11135;SDS011;5622;50.840;4.948;2022-10-26T16:25:57;9.77;;;5.97;;
11135;SDS011;5622;50.840;4.948;2022-10-26T16:28:24;6.90;;;4.90;;
11135;SDS011;5622;50.840;4.948;2022-10-26T16:30:57;7.37;;;4.10;;
11135;SDS011;5622;50.840;4.948;2022-10-26T16:33:27;6.40;;;3.60;;
11135;SDS011;5622;50.840;4.948;2022-10-26T16:35:54;4.93;;;2.77;;
11135;SDS011;5622;50.840;4.948;2022-10-26T16:38:24;6.47;;;2.70;;
11135;SDS011;5622;50.840;4.948;2022-10-26T16:40:59;2.63;;;2.07;;
11135;SDS011;5622;50.840;4.948;2022-10-26T16:43:26;3.93;;;2.00;;
11135;SDS011;5622;50.840;4.948;2022-10-26T16:45:55;4.43;;;2.00;;
11135;SDS011;5622;50.840;4.948;2022-10-26T16:48:22;6.27;;;2.00;;
11135;SDS011;5622;50.840;4.948;2022-10-26T16:50:50;5.17;;;1.73;;
11135;SDS011;5622;50.840;4.948;2022-10-26T16:53:17;8.47;;;2.30;;
11135;SDS011;5622;50.840;4.948;2022-10-26T16:56:21;2.87;;;1.70;;
11135;SDS011;5622;50.840;4.948;2022-10-26T16:59:35;6.37;;;2.47;;
11135;SDS011;5622;50.840;4.948;2022-10-26T17:02:51;5.53;;;2.37;;
11135;SDS011;5622;50.840;4.948;2022-10-26T17:05:18;4.43;;;2.10;;
11135;SDS011;5622;50.840;4.948;2022-10-26T17:07:45;5.63;;;2.10;;
11135;SDS011;5622;50.840;4.948;2022-10-26T17:10:27;4.53;;;2.13;;
11135;SDS011;5622;50.840;4.948;2022-10-26T17:13:30;5.33;;;2.47;;
11135;SDS011;5622;50.840;4.948;2022-10-26T17:15:59;6.63;;;2.63;;
11135;SDS011;5622;50.840;4.948;2022-10-26T17:18:27;4.87;;;2.60;;
11135;SDS011;5622;50.840;4.948;2022-10-26T17:20:54;6.13;;;2.80;;
11135;SDS011;5622;50.840;4.948;2022-10-26T17:23:22;5.50;;;2.57;;
11135;SDS011;5622;50.840;4.948;2022-10-26T17:25:49;4.90;;;2.50;;
11135;SDS011;5622;50.840;4.948;2022-10-26T17:28:16;6.83;;;2.43;;
11135;SDS011;5622;50.840;4.948;2022-10-26T17:30:45;4.30;;;2.47;;
11135;SDS011;5622;50.840;4.948;2022-10-26T17:33:12;4.87;;;2.43;;
11135;SDS011;5622;50.840;4.948;2022-10-26T17:35:39;3.53;;;2.10;;
11135;SDS011;5622;50.840;4.948;2022-10-26T17:38:06;5.30;;;2.30;;
11135;SDS011;5622;50.840;4.948;2022-10-26T17:40:33;3.97;;;2.50;;
11135;SDS011;5622;50.840;4.948;2022-10-26T17:43:01;4.33;;;2.57;;
11135;SDS011;5622;50.840;4.948;2022-10-26T17:45:28;4.83;;;2.63;;
11135;SDS011;5622;50.840;4.948;2022-10-26T17:47:56;3.03;;;2.30;;
11135;SDS011;5622;50.840;4.948;2022-10-26T17:50:26;4.97;;;2.93;;
11135;SDS011;5622;50.840;4.948;2022-10-26T17:52:53;4.00;;;2.60;;
11135;SDS011;5622;50.840;4.948;2022-10-26T17:55:20;8.00;;;3.73;;
11135;SDS011;5622;50.840;4.948;2022-10-26T17:57:47;4.23;;;2.93;;
11135;SDS011;5622;50.840;4.948;2022-10-26T18:00:14;7.30;;;3.67;;
11135;SDS011;5622;50.840;4.948;2022-10-26T18:02:42;4.40;;;3.03;;
11135;SDS011;5622;50.840;4.948;2022-10-26T18:05:11;5.40;;;2.80;;
11135;SDS011;5622;50.840;4.948;2022-10-26T18:07:38;4.60;;;2.60;;
11135;SDS011;5622;50.840;4.948;2022-10-26T18:10:05;5.07;;;2.57;;
11135;SDS011;5622;50.840;4.948;2022-10-26T18:12:34;6.90;;;3.10;;
11135;SDS011;5622;50.840;4.948;2022-10-26T18:15:01;4.97;;;2.50;;
11135;SDS011;5622;50.840;4.948;2022-10-26T18:17:29;4.70;;;2.30;;
11135;SDS011;5622;50.840;4.948;2022-10-26T18:19:56;4.60;;;2.40;;
11135;SDS011;5622;50.840;4.948;2022-10-26T18:22:25;3.80;;;2.57;;
11135;SDS011;5622;50.840;4.948;2022-10-26T18:24:52;6.13;;;2.90;;
11135;SDS011;5622;50.840;4.948;2022-10-26T18:27:19;5.80;;;2.80;;
11135;SDS011;5622;50.840;4.948;2022-10-26T18:29:46;7.77;;;2.87;;
11135;SDS011;5622;50.840;4.948;2022-10-26T18:32:13;6.17;;;3.00;;
11135;SDS011;5622;50.840;4.948;2022-10-26T18:34:40;6.77;;;3.00;;
11135;SDS011;5622;50.840;4.948;2022-10-26T18:37:07;8.00;;;3.40;;
11135;SDS011;5622;50.840;4.948;2022-10-26T18:42:38;4.73;;;3.20;;
11135;SDS011;5622;50.840;4.948;2022-10-26T18:48:29;7.87;;;3.00;;
11135;SDS011;5622;50.840;4.948;2022-10-26T18:51:01;5.27;;;2.83;;
11135;SDS011;5622;50.840;4.948;2022-10-26T18:53:30;4.20;;;2.63;;
11135;SDS011;5622;50.840;4.948;2022-10-26T18:56:00;3.87;;;2.70;;
11135;SDS011;5622;50.840;4.948;2022-10-26T18:58:28;7.20;;;3.53;;
11135;SDS011;5622;50.840;4.948;2022-10-26T19:01:06;6.03;;;3.00;;
11135;SDS011;5622;50.840;4.948;2022-10-26T19:03:35;4.50;;;2.87;;
11135;SDS011;5622;50.840;4.948;2022-10-26T19:09:30;4.43;;;2.73;;
11135;SDS011;5622;50.840;4.948;2022-10-26T19:11:59;6.37;;;3.27;;
11135;SDS011;5622;50.840;4.948;2022-10-26T19:14:30;6.67;;;3.33;;
11135;SDS011;5622;50.840;4.948;2022-10-26T19:16:58;5.23;;;3.10;;